Terminal Aerodrome Forecast
Issued by NWS

Home | Current Version | Previous Version | Text Only | Print | Product List | Glossary Off
Versions: 1 2 3 4 5 6 7 8 9 10 11 12 13 14 15

397
FTUS43 KIWX 200539
TAFSBN
TAF
KSBN 200539Z 2006/2106 17010KT P6SM SCT060 BKN150
     FM200800 17008KT P6SM VCTS BKN060CB
     FM201100 17007KT P6SM BKN035
     FM201600 21006KT 4SM -SHRA BR BKN030
      TEMPO 2017/2019 2SM TSRAGS BR BKN015CB
     FM202300 36006KT P6SM OVC025=

USA.gov is the U.S. government's official web portal to all federal, state and local government web resources and services.